Time;durP1;ratioP1;P1;durP2;ratioP2;P2;SDS_P1;SDS_P2;PMS_P1;PMS_P2;Temp;Humidity;BMP_temperature;BMP_pressure;BME280_temperature;BME280_humidity;BME280_pressure;Samples;Min_cycle;Max_cycle;Signal;HPM_P1;HPM_P2
2022/05/30 00:01:42;;;;;;;6.78;3.15;;;7.60;99.90;;;;;;5014610;28;20054;-81
2022/05/30 00:04:09;;;;;;;4.25;2.25;;;7.60;99.90;;;;;;5032615;28;20053;-80
2022/05/30 00:06:35;;;;;;;6.93;2.25;;;7.50;99.90;;;;;;5014919;28;20053;-81
2022/05/30 00:09:03;;;;;;;5.47;2.30;;;7.50;99.90;;;;;;5031652;28;20045;-81
2022/05/30 00:11:31;;;;;;;6.45;2.83;;;8.20;99.90;;;;;;5018389;28;20045;-81
2022/05/30 00:13:58;;;;;;;5.65;2.10;;;7.80;99.90;;;;;;5036422;28;20049;-80
2022/05/30 00:16:26;;;;;;;7.63;2.47;;;7.50;99.90;;;;;;5018130;28;20501;-80
2022/05/30 00:18:53;;;;;;;4.43;2.55;;;7.40;99.90;;;;;;5035826;28;20052;-81
2022/05/30 00:21:22;;;;;;;6.43;2.75;;;7.40;99.90;;;;;;5018488;28;20502;-80
2022/05/30 00:23:53;;;;;;;6.15;2.40;;;7.30;99.90;;;;;;5016724;28;20046;-80
2022/05/30 00:26:20;;;;;;;;;;;7.20;99.90;;;;;;5035395;28;20132;-81
2022/05/30 00:28:48;;;;;;;3.72;1.95;;;7.20;99.90;;;;;;5018393;28;19960;-80
2022/05/30 00:31:17;;;;;;;4.53;2.40;;;7.10;99.90;;;;;;5017353;28;20103;-81
2022/05/30 00:33:46;;;;;;;4.40;2.20;;;7.10;99.90;;;;;;5036183;28;20111;-79
2022/05/30 00:36:13;;;;;;;5.78;2.42;;;7.00;99.90;;;;;;5035241;28;20045;-81
2022/05/30 00:38:40;;;;;;;4.97;1.90;;;6.90;99.90;;;;;;5018163;28;20084;-80
2022/05/30 00:41:07;;;;;;;4.03;2.03;;;6.90;99.90;;;;;;5017958;28;20117;-80
2022/05/30 00:43:36;;;;;;;5.78;2.00;;;6.90;99.90;;;;;;5035262;28;20056;-79
2022/05/30 00:46:12;;;;;;;6.22;1.95;;;6.80;99.90;;;;;;5035225;28;20053;-80
2022/05/30 00:48:43;;;;;;;3.65;1.55;;;6.80;99.90;;;;;;5017815;28;20053;-80
2022/05/30 00:51:12;;;;;;;6.15;1.98;;;6.80;99.90;;;;;;5017530;28;20065;-80
2022/05/30 00:53:40;;;;;;;7.93;1.93;;;7.50;99.90;;;;;;4998426;28;20058;-81
2022/05/30 00:56:11;;;;;;;6.97;1.83;;;6.80;99.90;;;;;;5015422;28;20343;-81
2022/05/30 00:58:43;;;;;;;6.60;1.90;;;6.80;99.90;;;;;;5033579;28;20057;-81
2022/05/30 01:01:11;;;;;;;6.05;2.70;;;7.70;99.90;;;;;;5035545;28;20057;-80
2022/05/30 01:06:33;;;;;;;7.30;2.63;;;6.80;99.90;;;;;;5016793;28;20052;-80
2022/05/30 01:09:02;;;;;;;4.90;2.15;;;6.90;99.90;;;;;;5013643;28;20045;-80
2022/05/30 01:11:47;;;;;;;3.75;2.13;;;6.90;99.90;;;;;;5014457;28;20500;-80
2022/05/30 01:14:14;;;;;;;7.43;2.67;;;6.90;99.90;;;;;;5015604;28;20093;-80
2022/05/30 01:16:43;;;;;;;6.75;2.72;;;7.00;99.90;;;;;;5014705;28;20497;-79
2022/05/30 01:19:20;;;;;;;8.52;3.20;;;7.00;99.90;;;;;;4997181;28;20124;-80
2022/05/30 01:22:02;;;;;;;7.15;3.08;;;7.00;99.90;;;;;;5000655;28;20441;-80
2022/05/30 01:24:43;;;;;;;7.72;3.45;;;7.00;99.90;;;;;;5017166;28;20084;-80
2022/05/30 01:27:24;;;;;;;5.05;2.70;;;6.90;99.90;;;;;;5016891;28;20050;-80
2022/05/30 01:29:55;;;;;;;7.05;2.40;;;6.90;99.90;;;;;;5017325;28;20053;-80
2022/05/30 01:32:24;;;;;;;4.88;2.05;;;6.90;99.90;;;;;;5018277;28;20108;-79
2022/05/30 01:34:51;;;;;;;4.47;1.90;;;6.90;99.90;;;;;;5022640;28;20057;-79
2022/05/30 01:37:18;;;;;;;4.32;2.10;;;6.80;99.90;;;;;;5019796;28;20108;-79
2022/05/30 01:39:45;;;;;;;4.55;1.85;;;6.80;99.90;;;;;;5014901;28;20054;-80
2022/05/30 01:42:13;;;;;;;4.65;1.70;;;6.80;99.90;;;;;;5015553;28;20093;-80
2022/05/30 01:44:40;;;;;;;3.35;1.80;;;6.80;99.90;;;;;;5014656;28;20081;-79
2022/05/30 01:47:08;;;;;;;5.50;2.10;;;6.70;99.90;;;;;;5020627;28;20077;-79
2022/05/30 01:49:35;;;;;;;4.28;1.70;;;6.70;99.90;;;;;;5029124;28;20053;-79
2022/05/30 01:52:02;;;;;;;6.82;2.10;;;6.70;99.90;;;;;;5014456;28;20088;-80
2022/05/30 01:54:30;;;;;;;4.85;2.10;;;6.70;99.90;;;;;;5012981;28;20572;-80
2022/05/30 01:56:57;;;;;;;6.25;2.22;;;6.70;99.90;;;;;;5013215;28;20065;-80
2022/05/30 01:59:23;;;;;;;3.90;2.08;;;6.70;99.90;;;;;;5012978;28;20144;-81
2022/05/30 02:01:50;;;;;;;4.10;1.65;;;6.70;99.90;;;;;;5012348;28;20104;-80
2022/05/30 02:04:19;;;;;;;2.90;1.40;;;6.70;99.90;;;;;;5013116;28;20050;-80
2022/05/30 02:06:46;;;;;;;3.63;1.70;;;6.70;99.90;;;;;;4992952;28;20482;-79
2022/05/30 02:09:13;;;;;;;4.78;2.00;;;6.60;99.90;;;;;;4994257;28;20066;-80
2022/05/30 02:11:40;;;;;;;4.47;1.75;;;6.60;99.90;;;;;;4993761;28;20062;-82
2022/05/30 02:14:06;;;;;;;4.03;1.92;;;6.60;99.90;;;;;;4994271;28;20117;-81
2022/05/30 02:19:20;;;;;;;4.07;1.63;;;6.60;99.90;;;;;;4997880;28;20136;-81
2022/05/30 02:21:47;;;;;;;4.85;1.80;;;6.70;99.90;;;;;;5013884;28;20100;-81
2022/05/30 02:24:15;;;;;;;2.95;1.92;;;6.60;99.90;;;;;;5013201;28;20164;-81
2022/05/30 02:26:42;;;;;;;4.40;1.60;;;6.60;99.90;;;;;;5013950;28;20133;-82
2022/05/30 02:29:10;;;;;;;3.80;1.50;;;6.60;99.90;;;;;;5012623;28;20405;-79
2022/05/30 02:31:37;;;;;;;2.45;1.50;;;6.60;99.90;;;;;;5012907;28;20409;-78
2022/05/30 02:36:51;;;;;;;2.90;1.40;;;6.60;99.90;;;;;;5012005;28;20067;-79
2022/05/30 02:39:19;;;;;;;2.42;1.50;;;6.60;99.90;;;;;;5012425;28;20062;-79
2022/05/30 02:41:46;;;;;;;4.40;1.80;;;6.70;99.90;;;;;;5012489;28;20054;-80
2022/05/30 02:44:14;;;;;;;3.35;1.85;;;6.50;99.90;;;;;;5011814;28;20057;-79
2022/05/30 02:46:41;;;;;;;4.60;1.80;;;6.50;99.90;;;;;;5013473;28;20100;-79
2022/05/30 02:49:09;;;;;;;4.32;2.00;;;6.50;99.90;;;;;;5013104;28;20058;-77
2022/05/30 02:51:36;;;;;;;3.42;1.48;;;7.00;99.90;;;;;;5012046;28;20080;-79
2022/05/30 02:54:04;;;;;;;5.55;1.65;;;6.60;99.90;;;;;;5013413;28;20058;-79
2022/05/30 02:56:31;;;;;;;5.45;1.77;;;6.70;99.90;;;;;;5012598;28;20379;-79
2022/05/30 02:58:58;;;;;;;8.77;2.10;;;6.80;99.90;;;;;;5013217;28;20460;-79
2022/05/30 03:01:26;;;;;;;6.10;2.15;;;6.90;99.90;;;;;;5012392;28;20245;-80
2022/05/30 03:03:53;;;;;;;4.22;1.90;;;6.90;99.90;;;;;;5011745;28;20512;-80
2022/05/30 03:06:20;;;;;;;5.55;2.03;;;7.00;99.90;;;;;;5013998;28;20129;-80
2022/05/30 03:08:47;;;;;;;4.78;1.90;;;7.10;99.90;;;;;;5013668;28;20453;-79
2022/05/30 03:11:15;;;;;;;6.15;2.00;;;7.50;99.90;;;;;;5014362;28;20050;-79
2022/05/30 03:13:43;;;;;;;3.97;1.95;;;7.20;99.90;;;;;;5021567;28;20457;-79
2022/05/30 03:16:10;;;;;;;6.20;2.00;;;7.30;99.90;;;;;;5017802;28;20092;-78
2022/05/30 03:18:37;;;;;;;4.07;1.85;;;7.40;99.90;;;;;;5012721;28;20131;-77
2022/05/30 03:21:05;;;;;;;5.40;2.10;;;7.40;99.90;;;;;;5012018;28;20445;-79
2022/05/30 03:23:32;;;;;;;4.90;1.77;;;7.40;99.90;;;;;;5011487;28;20085;-79
2022/05/30 03:25:59;;;;;;;5.72;2.50;;;7.50;99.90;;;;;;5010904;28;20104;-79
2022/05/30 03:28:27;;;;;;;5.05;2.10;;;7.50;99.90;;;;;;5011869;28;20053;-80
2022/05/30 03:30:54;;;;;;;4.40;2.15;;;7.90;99.90;;;;;;5013159;28;20567;-80
2022/05/30 03:33:20;;;;;;;3.55;2.15;;;7.60;99.90;;;;;;5032267;28;20092;-80
2022/05/30 03:35:48;;;;;;;3.63;1.88;;;7.60;99.90;;;;;;5032906;28;20077;-80
2022/05/30 03:38:14;;;;;;;6.72;2.28;;;7.60;99.90;;;;;;5033150;28;20088;-81
2022/05/30 03:40:42;;;;;;;4.95;2.30;;;7.60;99.90;;;;;;5015135;28;20053;-81
2022/05/30 03:43:11;;;;;;;3.92;1.80;;;7.60;99.90;;;;;;5033418;28;20055;-80
2022/05/30 03:45:41;;;;;;;4.68;2.92;;;8.10;99.90;;;;;;5017241;28;20128;-81
2022/05/30 03:48:10;;;;;;;3.72;2.22;;;7.70;99.90;;;;;;5019099;28;20054;-80
2022/05/30 03:50:39;;;;;;;5.03;2.33;;;8.10;99.90;;;;;;5019164;28;20053;-81
2022/05/30 03:53:06;;;;;;;5.75;2.10;;;7.70;99.90;;;;;;5036117;28;20050;-80
2022/05/30 03:55:34;;;;;;;4.30;2.22;;;7.70;99.90;;;;;;5018630;28;20049;-81
2022/05/30 03:58:02;;;;;;;4.38;2.30;;;7.70;99.90;;;;;;5036301;28;20059;-81
2022/05/30 04:00:29;;;;;;;8.48;2.22;;;7.80;99.90;;;;;;5035741;28;20049;-80
2022/05/30 04:02:57;;;;;;;4.03;2.28;;;7.80;99.90;;;;;;5036609;28;20103;-79
2022/05/30 04:05:24;;;;;;;5.07;2.25;;;7.90;99.90;;;;;;5036305;28;20115;-80
2022/05/30 04:07:52;;;;;;;5.47;2.25;;;7.90;99.90;;;;;;5017815;28;20088;-79
2022/05/30 04:10:19;;;;;;;5.55;2.15;;;8.40;99.90;;;;;;5018552;28;20093;-80
2022/05/30 04:12:46;;;;;;;8.73;2.85;;;8.00;99.90;;;;;;5018172;28;20053;-80
2022/05/30 04:15:19;;;;;;;4.43;1.83;;;8.10;99.90;;;;;;5017690;28;20081;-79
2022/05/30 04:17:46;;;;;;;5.00;2.42;;;8.10;99.90;;;;;;5018930;28;20144;-80
2022/05/30 04:20:14;;;;;;;4.97;2.05;;;8.20;99.90;;;;;;5016588;28;20085;-80
2022/05/30 04:22:41;;;;;;;3.35;1.92;;;8.20;99.90;;;;;;5017007;28;20064;-79
2022/05/30 04:25:09;;;;;;;4.20;2.03;;;8.80;99.90;;;;;;5035261;28;20049;-79
2022/05/30 04:27:36;;;;;;;5.65;2.22;;;8.30;99.90;;;;;;5018611;28;20077;-80
2022/05/30 04:30:03;;;;;;;3.50;2.20;;;8.60;99.90;;;;;;5017722;28;20093;-81
2022/05/30 04:32:30;;;;;;;4.95;2.33;;;8.40;99.90;;;;;;5035459;28;20058;-80
2022/05/30 04:34:57;;;;;;;6.75;2.30;;;8.40;99.90;;;;;;5035535;28;20428;-80
2022/05/30 04:37:25;;;;;;;4.75;2.35;;;8.40;99.90;;;;;;5017752;28;20080;-80
2022/05/30 04:39:52;;;;;;;4.07;1.90;;;8.50;99.90;;;;;;5018088;28;20100;-81
2022/05/30 04:42:19;;;;;;;5.32;2.47;;;8.50;99.90;;;;;;5019866;28;20068;-81
2022/05/30 04:44:46;;;;;;;4.50;2.10;;;8.50;99.90;;;;;;5014699;28;20455;-80
2022/05/30 04:47:13;;;;;;;5.53;2.15;;;8.50;99.90;;;;;;5033666;28;20049;-79
2022/05/30 04:49:40;;;;;;;4.30;2.40;;;8.50;99.90;;;;;;5006053;28;20092;-81
2022/05/30 04:52:07;;;;;;;4.35;1.83;;;9.30;99.90;;;;;;5026092;28;20180;-80
2022/05/30 04:54:35;;;;;;;5.55;2.17;;;8.60;99.90;;;;;;5012761;28;20085;-76
2022/05/30 04:57:02;;;;;;;6.45;2.55;;;8.60;99.90;;;;;;5008484;28;20134;-80
2022/05/30 04:59:29;;;;;;;6.00;1.90;;;8.60;99.90;;;;;;5012114;28;20096;-78
2022/05/30 05:01:56;;;;;;;3.60;2.30;;;8.80;99.90;;;;;;5011481;28;20552;-82
2022/05/30 05:04:23;;;;;;;6.80;2.25;;;8.70;99.90;;;;;;5015215;28;20048;-82
2022/05/30 05:06:50;;;;;;;3.40;2.00;;;8.80;99.90;;;;;;5010765;28;20042;-83
2022/05/30 05:09:28;;;;;;;6.05;2.17;;;8.90;99.90;;;;;;5009855;28;20045;-83
2022/05/30 05:11:56;;;;;;;4.25;2.47;;;8.90;99.90;;;;;;5008908;28;20057;-80
2022/05/30 05:14:23;;;;;;;4.93;1.80;;;9.00;99.90;;;;;;5013950;28;20045;-85
2022/05/30 05:16:50;;;;;;;3.17;2.05;;;9.10;99.90;;;;;;5029008;28;20049;-80
2022/05/30 05:19:17;;;;;;;5.97;2.50;;;9.10;99.90;;;;;;5028435;28;20064;-82
2022/05/30 05:21:46;;;;;;;5.78;2.15;;;9.00;99.90;;;;;;5012978;28;20107;-83
2022/05/30 05:24:15;;;;;;;7.88;2.63;;;9.10;99.90;;;;;;5019710;28;20108;-80
2022/05/30 05:26:48;;;;;;;4.43;1.98;;;9.10;99.90;;;;;;5027207;28;20053;-80
2022/05/30 05:29:17;;;;;;;4.38;2.30;;;9.60;99.90;;;;;;5032192;28;20042;-82
2022/05/30 05:31:44;;;;;;;3.58;2.00;;;9.60;99.90;;;;;;5011923;28;20459;-81
2022/05/30 05:34:13;;;;;;;4.63;2.00;;;9.90;99.90;;;;;;5011799;28;20746;-81
2022/05/30 05:36:46;;;;;;;4.38;1.95;;;10.20;99.90;;;;;;5012558;28;20080;-82
2022/05/30 05:39:14;;;;;;;4.60;1.60;;;10.30;99.90;;;;;;5025233;28;20091;-82
2022/05/30 05:41:42;;;;;;;7.20;2.03;;;10.40;99.90;;;;;;5014541;28;20112;-81
2022/05/30 05:44:10;;;;;;;3.90;1.92;;;10.60;99.90;;;;;;5028276;28;20046;-82
2022/05/30 05:46:38;;;;;;;5.57;2.03;;;10.80;99.90;;;;;;5009277;28;20049;-80
2022/05/30 05:49:06;;;;;;;4.80;1.42;;;11.10;99.90;;;;;;5029421;28;20045;-81
2022/05/30 05:51:33;;;;;;;6.18;1.55;;;11.20;99.90;;;;;;5010338;28;20491;-82
2022/05/30 05:54:00;;;;;;;8.57;2.28;;;11.20;99.90;;;;;;5031515;28;20049;-83
2022/05/30 05:56:31;;;;;;;6.40;2.00;;;11.30;99.90;;;;;;5020470;28;20390;-82
2022/05/30 05:58:57;;;;;;;;;;;11.20;99.90;;;;;;5016758;28;20533;-83
2022/05/30 06:01:26;;;;;;;3.58;1.35;;;11.20;99.90;;;;;;5039205;28;19987;-81
2022/05/30 06:03:55;;;;;;;5.18;1.90;;;11.20;99.90;;;;;;5043346;28;20057;-81
2022/05/30 06:06:22;;;;;;;6.32;1.63;;;11.30;99.90;;;;;;5030134;28;20076;-83
2022/05/30 06:08:50;;;;;;;3.25;1.48;;;11.30;99.90;;;;;;5027044;28;20061;-81
2022/05/30 06:11:19;;;;;;;2.53;1.35;;;11.40;99.90;;;;;;5006775;28;20088;-84
2022/05/30 06:13:47;;;;;;;9.63;1.60;;;11.60;99.90;;;;;;5032037;28;20060;-82
2022/05/30 06:16:17;;;;;;;2.88;1.13;;;11.70;99.90;;;;;;5017104;28;20041;-81
2022/05/30 06:18:44;;;;;;;2.78;1.10;;;11.90;99.90;;;;;;5039426;28;20053;-79
2022/05/30 06:21:12;;;;;;;2.17;1.05;;;12.10;99.90;;;;;;5023232;28;20093;-82
2022/05/30 06:23:39;;;;;;;5.80;1.30;;;12.30;99.90;;;;;;5043630;28;20040;-83
2022/05/30 06:26:06;;;;;;;7.55;1.98;;;12.50;99.90;;;;;;5034825;28;20050;-82
2022/05/30 06:28:35;;;;;;;3.83;1.00;;;12.50;99.90;;;;;;5031804;28;20049;-82
2022/05/30 06:31:01;;;;;;;6.03;1.65;;;12.70;99.90;;;;;;5010056;28;20066;-83
2022/05/30 06:33:28;;;;;;;7.90;1.98;;;12.70;99.90;;;;;;4994992;28;20445;-83
2022/05/30 06:35:55;;;;;;;2.63;1.42;;;12.70;99.90;;;;;;4988187;28;20492;-83
2022/05/30 06:38:23;;;;;;;3.95;0.90;;;12.70;99.90;;;;;;4992195;28;20089;-83
2022/05/30 06:40:50;;;;;;;2.65;1.02;;;12.70;99.90;;;;;;5005594;28;20046;-82
2022/05/30 06:43:17;;;;;;;4.68;1.02;;;12.60;99.90;;;;;;5008430;28;20115;-81
2022/05/30 06:45:48;;;;;;;4.25;1.02;;;12.70;99.90;;;;;;4991028;28;20096;-82
2022/05/30 06:48:15;;;;;;;3.78;1.00;;;12.70;99.90;;;;;;5004655;28;20406;-82
2022/05/30 06:50:42;;;;;;;5.53;1.67;;;12.80;99.90;;;;;;4989635;28;20482;-82
2022/05/30 06:53:09;;;;;;;3.58;0.98;;;12.90;99.90;;;;;;5006934;28;20475;-81
2022/05/30 06:55:37;;;;;;;4.53;1.10;;;13.00;99.90;;;;;;4984651;28;20073;-81
2022/05/30 06:58:13;;;;;;;2.20;1.00;;;13.00;99.90;;;;;;4989353;28;20128;-81
2022/05/30 07:00:41;;;;;;;2.80;1.05;;;13.00;99.90;;;;;;5006073;28;20379;-81
2022/05/30 07:03:08;;;;;;;3.88;1.10;;;12.90;99.90;;;;;;4993549;28;20081;-79
2022/05/30 07:05:35;;;;;;;2.00;1.10;;;12.80;99.90;;;;;;4987262;28;20042;-80
2022/05/30 07:08:02;;;;;;;4.65;1.20;;;12.70;99.90;;;;;;4987237;28;20042;-80
2022/05/30 07:10:30;;;;;;;4.80;1.15;;;12.60;99.90;;;;;;5005925;28;20085;-79
2022/05/30 07:12:59;;;;;;;5.43;1.05;;;12.80;99.90;;;;;;5005553;28;20120;-81
2022/05/30 07:15:26;;;;;;;3.90;0.98;;;12.60;99.90;;;;;;5008775;28;20052;-80
2022/05/30 07:17:53;;;;;;;2.50;1.17;;;12.50;99.90;;;;;;5004735;28;20441;-82
2022/05/30 07:20:21;;;;;;;3.40;1.30;;;12.40;99.90;;;;;;4991433;28;20110;-81
2022/05/30 07:22:48;;;;;;;3.00;1.20;;;12.20;99.90;;;;;;4991330;28;20128;-79
2022/05/30 07:25:14;;;;;;;3.55;1.63;;;12.10;99.90;;;;;;4991492;28;20089;-81
2022/05/30 07:27:41;;;;;;;2.65;1.25;;;12.20;99.90;;;;;;4991446;28;20351;-81
2022/05/30 07:30:11;;;;;;;5.80;1.77;;;12.00;99.90;;;;;;5014324;28;20085;-80
2022/05/30 07:32:37;;;;;;;2.20;1.35;;;12.00;99.90;;;;;;4999627;28;20107;-80
2022/05/30 07:35:05;;;;;;;3.15;1.17;;;12.10;99.90;;;;;;5021869;28;20045;-81
2022/05/30 07:37:32;;;;;;;3.05;1.10;;;12.10;99.90;;;;;;5007674;28;20049;-80
2022/05/30 07:39:59;;;;;;;2.80;1.08;;;12.30;99.90;;;;;;5011704;28;20097;-80
2022/05/30 07:42:26;;;;;;;2.92;1.25;;;13.00;99.90;;;;;;4997890;28;20046;-79
2022/05/30 07:44:52;;;;;;;2.33;1.10;;;13.90;99.90;;;;;;5003276;28;20046;-80
2022/05/30 07:47:21;;;;;;;2.78;0.98;;;15.20;99.90;;;;;;5003223;28;20116;-82
2022/05/30 07:49:48;;;;;;;4.22;1.02;;;16.00;99.90;;;;;;5014997;28;20120;-82
2022/05/30 07:52:15;;;;;;;2.67;1.15;;;16.20;99.90;;;;;;4998729;28;20473;-80
2022/05/30 07:54:43;;;;;;;2.30;1.00;;;16.20;99.90;;;;;;5023132;28;20528;-82
2022/05/30 07:57:10;;;;;;;3.58;1.23;;;16.40;99.90;;;;;;5009262;28;20092;-82
2022/05/30 07:59:37;;;;;;;1.65;0.80;;;16.30;99.90;;;;;;5020621;28;20120;-82
2022/05/30 08:02:05;;;;;;;3.22;1.08;;;16.20;99.90;;;;;;5000496;28;20089;-82
2022/05/30 08:04:36;;;;;;;3.88;0.98;;;16.00;99.90;;;;;;5018042;28;20440;-81
2022/05/30 08:07:06;;;;;;;3.55;1.08;;;15.90;99.90;;;;;;5000344;28;20069;-80
2022/05/30 08:09:32;;;;;;;2.60;0.80;;;15.40;99.90;;;;;;5019437;28;20045;-81
2022/05/30 08:11:59;;;;;;;1.65;0.80;;;15.00;99.90;;;;;;5016268;28;20045;-85
2022/05/30 08:14:26;;;;;;;2.53;1.10;;;15.00;99.90;;;;;;4996767;28;20054;-83
2022/05/30 08:16:53;;;;;;;2.60;0.80;;;14.90;99.90;;;;;;5017896;28;20053;-82
2022/05/30 08:19:20;;;;;;;5.82;1.10;;;15.60;99.90;;;;;;5016554;28;20100;-83
2022/05/30 08:21:48;;;;;;;2.22;0.73;;;15.40;99.90;;;;;;5028570;28;20056;-82
2022/05/30 08:24:15;;;;;;;1.80;0.80;;;15.60;99.90;;;;;;5004773;28;20053;-83
2022/05/30 08:26:44;;;;;;;2.80;1.10;;;15.40;99.90;;;;;;5009411;28;20563;-83
2022/05/30 08:29:11;;;;;;;4.68;1.20;;;15.30;99.90;;;;;;5016743;28;20046;-82
2022/05/30 08:31:38;;;;;;;2.33;1.00;;;14.80;99.90;;;;;;5000977;28;20143;-83
2022/05/30 08:34:14;;;;;;;5.45;1.20;;;14.20;99.90;;;;;;5006925;28;20462;-83
2022/05/30 08:36:49;;;;;;;1.88;0.68;;;14.80;99.90;;;;;;5011707;28;20064;-84
2022/05/30 08:42:03;;;;;;;3.47;0.80;;;13.10;99.90;;;;;;5006929;28;20101;-82
2022/05/30 08:44:30;;;;;;;3.10;0.88;;;13.10;99.90;;;;;;5012706;28;20465;-82
2022/05/30 08:47:14;;;;;;;3.00;0.95;;;13.00;99.90;;;;;;5011345;28;20092;-81
2022/05/30 08:49:46;;;;;;;1.50;0.90;;;12.90;99.90;;;;;;5008531;28;20081;-82
2022/05/30 08:52:36;;;;;;;2.55;0.90;;;12.70;99.90;;;;;;5009394;28;20123;-81
2022/05/30 08:55:15;;;;;;;1.73;0.70;;;12.70;99.90;;;;;;5014354;28;20077;-81
2022/05/30 08:57:50;;;;;;;4.30;1.13;;;12.70;99.90;;;;;;5012477;28;20100;-80
2022/05/30 09:00:26;;;;;;;2.00;0.90;;;12.70;99.90;;;;;;5015035;28;20041;-82
2022/05/30 09:02:57;;;;;;;1.85;0.60;;;12.60;99.90;;;;;;5012553;28;20109;-81
2022/05/30 09:05:29;;;;;;;1.70;0.90;;;12.80;99.90;;;;;;5005447;28;20061;-83
2022/05/30 09:07:59;;;;;;;2.45;0.95;;;12.60;99.90;;;;;;5007129;28;20127;-82
2022/05/30 09:10:33;;;;;;;2.38;0.90;;;12.70;99.90;;;;;;5010666;28;20077;-82
2022/05/30 09:13:06;;;;;;;3.20;1.08;;;12.60;99.90;;;;;;5009072;28;20042;-83
2022/05/30 09:15:37;;;;;;;2.47;1.10;;;12.70;99.90;;;;;;5009575;28;20398;-80
2022/05/30 09:18:09;;;;;;;3.20;1.20;;;12.80;99.90;;;;;;5004847;28;20124;-82
2022/05/30 09:20:37;;;;;;;3.40;1.10;;;13.00;99.90;;;;;;5010452;28;20045;-81
2022/05/30 09:23:06;;;;;;;1.77;0.80;;;12.90;99.90;;;;;;5007331;28;20053;-82
2022/05/30 09:26:01;;;;;;;2.70;1.00;;;13.00;99.90;;;;;;5007440;28;20053;-82
2022/05/30 09:28:32;;;;;;;4.80;1.25;;;13.10;99.90;;;;;;5020811;28;20046;-82
2022/05/30 09:31:13;;;;;;;2.45;1.20;;;13.30;99.90;;;;;;5018738;28;20486;-84
2022/05/30 09:33:43;;;;;;;2.15;1.08;;;13.50;99.90;;;;;;5009080;28;20046;-84
2022/05/30 09:36:17;;;;;;;2.60;1.13;;;13.70;99.90;;;;;;5008896;28;20098;-83
2022/05/30 09:38:47;;;;;;;2.17;0.90;;;14.00;99.90;;;;;;4990738;28;20042;-83
2022/05/30 09:41:19;;;;;;;2.33;1.00;;;14.30;99.90;;;;;;5004228;28;21414;-83
2022/05/30 09:43:51;;;;;;;2.50;0.85;;;14.60;99.90;;;;;;4987758;28;20509;-83
2022/05/30 09:46:25;;;;;;;4.03;1.20;;;15.00;99.90;;;;;;5008754;28;20140;-81
2022/05/30 09:49:05;;;;;;;4.43;1.08;;;15.20;99.90;;;;;;4994462;28;20100;-82
2022/05/30 09:51:35;;;;;;;2.42;1.10;;;15.50;99.90;;;;;;4990530;28;20521;-82
2022/05/30 09:54:02;;;;;;;3.08;1.02;;;15.60;99.90;;;;;;4991491;28;20100;-82
2022/05/30 09:56:38;;;;;;;1.67;0.70;;;16.00;99.90;;;;;;5006434;28;20100;-81
2022/05/30 09:59:07;;;;;;;1.90;1.00;;;16.50;99.90;;;;;;4988162;28;20145;-81
2022/05/30 10:01:37;;;;;;;2.38;0.77;;;16.90;99.90;;;;;;4993278;28;20061;-83
2022/05/30 10:04:18;;;;;;;2.67;0.93;;;17.30;99.90;;;;;;5103604;27;1963568;-78
2022/05/30 10:07:05;;;;;;;2.03;0.77;;;17.50;99.90;;;;;;5145062;27;20524;-79
2022/05/30 10:09:34;;;;;;;2.72;1.10;;;17.70;99.90;;;;;;5146608;27;20401;-79
2022/05/30 10:12:02;;;;;;;3.17;1.10;;;18.10;99.90;;;;;;5146846;27;20055;-80
2022/05/30 10:14:32;;;;;;;1.42;0.73;;;17.30;99.90;;;;;;5166069;27;20035;-79
2022/05/30 10:17:01;;;;;;;;;;;17.20;99.90;;;;;;5167121;27;20111;-80
2022/05/30 10:19:32;;;;;;;1.42;0.68;;;16.80;99.90;;;;;;5165647;27;19923;-78
2022/05/30 10:28:17;;;;;;;1.00;0.60;;;15.80;99.90;;;;;;5143956;27;20501;-78
2022/05/30 10:30:53;;;;;;;1.40;0.63;;;15.50;99.90;;;;;;5151953;27;20038;-78
2022/05/30 10:33:33;;;;;;;2.22;0.75;;;15.10;99.90;;;;;;5147536;27;20375;-77
2022/05/30 10:36:14;;;;;;;1.77;0.90;;;14.80;99.90;;;;;;5162508;27;20091;-78
2022/05/30 10:38:51;;;;;;;3.08;0.98;;;14.30;99.90;;;;;;5143729;27;20058;-77
2022/05/30 10:41:22;;;;;;;2.10;0.90;;;13.90;99.90;;;;;;5145693;27;20050;-77
2022/05/30 10:44:00;;;;;;;2.13;0.70;;;13.50;99.90;;;;;;5161488;27;20043;-78
2022/05/30 10:46:37;;;;;;;2.45;0.82;;;13.30;99.90;;;;;;5141858;27;20501;-77
2022/05/30 10:49:09;;;;;;;2.15;0.95;;;13.30;99.90;;;;;;5131803;27;20130;-79
2022/05/30 10:51:44;;;;;;;2.97;0.90;;;13.20;99.90;;;;;;5139268;27;20050;-80
2022/05/30 10:54:19;;;;;;;2.17;0.75;;;13.00;99.90;;;;;;5132377;27;20051;-79
2022/05/30 10:56:49;;;;;;;1.30;0.70;;;13.10;99.90;;;;;;5166906;27;20051;-79
2022/05/30 10:59:27;;;;;;;1.23;0.60;;;13.00;99.90;;;;;;5171752;27;20103;-79
2022/05/30 11:01:58;;;;;;;1.58;0.77;;;13.00;99.90;;;;;;5153260;27;20050;-80
2022/05/30 11:04:42;;;;;;;2.03;0.90;;;13.10;99.90;;;;;;5152420;27;20489;-80
2022/05/30 11:07:36;;;;;;;1.98;0.90;;;13.20;99.90;;;;;;5152600;27;20058;-80
2022/05/30 11:10:20;;;;;;;2.38;0.98;;;13.30;99.90;;;;;;5152238;27;20054;-80
2022/05/30 11:12:53;;;;;;;2.30;0.98;;;13.40;99.90;;;;;;5152654;27;20448;-79
2022/05/30 11:15:26;;;;;;;3.75;0.95;;;13.50;99.90;;;;;;5158980;27;20051;-79
2022/05/30 11:18:01;;;;;;;1.73;0.90;;;13.60;99.90;;;;;;5157192;27;20465;-80
2022/05/30 11:20:34;;;;;;;2.80;0.77;;;13.80;99.90;;;;;;5139058;27;20087;-79
2022/05/30 11:23:05;;;;;;;2.38;0.70;;;13.80;99.90;;;;;;5139034;27;20103;-78
2022/05/30 11:25:49;;;;;;;1.20;0.68;;;13.80;99.90;;;;;;5138714;27;20466;-80
2022/05/30 11:28:25;;;;;;;3.63;1.00;;;13.80;99.90;;;;;;5138992;27;20445;-79
2022/05/30 11:30:58;;;;;;;1.80;0.77;;;13.80;99.90;;;;;;5156728;27;20058;-78
2022/05/30 11:34:10;;;;;;;1.23;0.63;;;13.80;99.90;;;;;;5138968;27;20170;-78
2022/05/30 11:37:01;;;;;;;1.88;0.50;;;13.90;99.90;;;;;;5109430;27;20095;-79
2022/05/30 11:39:45;;;;;;;1.23;0.57;;;14.00;99.90;;;;;;5156765;27;20050;-78
2022/05/30 11:42:21;;;;;;;1.20;0.60;;;14.10;99.90;;;;;;5156832;27;20046;-79
2022/05/30 11:44:56;;;;;;;1.42;0.70;;;14.10;99.90;;;;;;5137489;27;20093;-79
2022/05/30 11:47:32;;;;;;;1.52;0.68;;;14.40;99.90;;;;;;5157093;27;20058;-78
2022/05/30 11:50:26;;;;;;;2.90;0.60;;;14.60;99.90;;;;;;5123405;27;20198;-78
2022/05/30 11:53:27;;;;;;;1.83;0.60;;;14.80;99.90;;;;;;5119999;27;20096;-79
2022/05/30 11:56:02;;;;;;;1.60;0.73;;;14.90;99.90;;;;;;5119759;27;20043;-79
2022/05/30 11:58:45;;;;;;;1.90;0.70;;;14.80;99.90;;;;;;5134950;27;20047;-78
2022/05/30 12:01:12;;;;;;;3.80;1.00;;;14.70;99.90;;;;;;5127122;27;20067;-78
2022/05/30 12:04:33;;;;;;;1.35;0.60;;;14.40;99.90;;;;;;5128229;27;20043;-77
2022/05/30 12:07:19;;;;;;;;;;;14.10;99.90;;;;;;5053187;27;20494;-78
2022/05/30 12:10:06;;;;;;;3.08;1.23;;;13.60;99.90;;;;;;5124432;27;19919;-79
2022/05/30 12:12:52;;;;;;;4.25;1.00;;;13.30;99.90;;;;;;5121032;27;20050;-81
2022/05/30 12:15:58;;;;;;;3.13;1.30;;;13.20;99.90;;;;;;5127358;27;20055;-82
2022/05/30 12:24:32;;;;;;;1.58;0.95;;;13.20;99.90;;;;;;5128730;27;20521;-87
2022/05/30 12:27:09;;;;;;;3.42;1.17;;;13.30;99.90;;;;;;5133806;27;20055;-81
2022/05/30 12:29:51;;;;;;;3.58;1.27;;;13.40;99.90;;;;;;5120958;27;20062;-82
2022/05/30 12:32:38;;;;;;;2.20;1.20;;;13.40;99.90;;;;;;5137863;27;20080;-83
2022/05/30 12:35:23;;;;;;;1.50;0.85;;;13.50;99.90;;;;;;5145948;27;20055;-82
2022/05/30 12:37:52;;;;;;;2.63;1.48;;;13.80;99.90;;;;;;5131043;27;20047;-81
2022/05/30 12:40:36;;;;;;;2.30;1.10;;;14.00;99.90;;;;;;5130397;27;20047;-83
2022/05/30 12:43:13;;;;;;;2.38;1.13;;;14.30;99.90;;;;;;5124116;27;20055;-83
2022/05/30 12:45:46;;;;;;;4.30;1.20;;;14.70;99.90;;;;;;5125797;27;20055;-84
2022/05/30 12:48:17;;;;;;;3.13;1.33;;;14.90;99.90;;;;;;5140319;27;20047;-81
2022/05/30 12:51:00;;;;;;;2.55;0.63;;;15.30;99.90;;;;;;5115760;27;20403;-81
2022/05/30 12:54:05;;;;;;;1.52;1.00;;;15.50;99.90;;;;;;5119258;27;20058;-81
2022/05/30 12:57:08;;;;;;;5.78;1.15;;;15.70;99.90;;;;;;5126429;27;20107;-80
2022/05/30 12:59:56;;;;;;;3.03;0.90;;;15.90;99.90;;;;;;5131538;27;20047;-78
2022/05/30 13:02:49;;;;;;;1.80;0.88;;;16.80;99.90;;;;;;5114897;27;20055;-78
2022/05/30 13:05:25;;;;;;;3.72;0.80;;;16.10;99.90;;;;;;5131118;27;20494;-78
2022/05/30 13:07:52;;;;;;;1.23;0.60;;;16.20;99.90;;;;;;5122519;27;20126;-79
2022/05/30 13:10:19;;;;;;;2.33;0.80;;;16.70;99.90;;;;;;5121488;27;20050;-79
2022/05/30 13:12:56;;;;;;;1.73;0.80;;;16.00;99.90;;;;;;5133773;27;20051;-80
2022/05/30 13:15:35;;;;;;;1.20;0.60;;;16.20;99.90;;;;;;5148460;27;20055;-79
2022/05/30 13:18:12;;;;;;;1.65;0.90;;;15.80;99.90;;;;;;5143441;27;20039;-79
2022/05/30 13:20:48;;;;;;;4.20;1.10;;;15.60;99.90;;;;;;5134270;27;20043;-79
2022/05/30 13:23:16;;;;;;;1.52;0.80;;;15.30;99.90;;;;;;5121870;27;20102;-78
2022/05/30 13:25:46;;;;;;;3.05;0.98;;;15.00;99.90;;;;;;5155113;27;20050;-80
2022/05/30 13:28:20;;;;;;;4.53;0.90;;;14.30;99.90;;;;;;5136799;27;20046;-79
2022/05/30 13:30:47;;;;;;;2.00;0.82;;;14.90;99.90;;;;;;5135833;27;20107;-80
2022/05/30 13:33:22;;;;;;;2.42;1.15;;;15.00;99.90;;;;;;5135901;27;20047;-85
2022/05/30 13:35:53;;;;;;;3.05;1.17;;;15.10;99.90;;;;;;5136139;27;20051;-78
2022/05/30 13:38:26;;;;;;;2.05;1.05;;;15.40;99.90;;;;;;5115026;27;20047;-78